sensor_id;sensor_type;location;lat;lon;timestamp;P1;durP1;ratioP1;P2;durP2;ratioP2
65717;SDS011;52445;52.466;-1.016;2023-04-16T00:01:26;13.13;;;7.35;;
65717;SDS011;52445;52.466;-1.016;2023-04-16T00:03:53;13.80;;;7.43;;
65717;SDS011;52445;52.466;-1.016;2023-04-16T00:06:21;15.98;;;7.15;;
65717;SDS011;52445;52.466;-1.016;2023-04-16T00:08:48;12.07;;;6.90;;
65717;SDS011;52445;52.466;-1.016;2023-04-16T00:11:15;14.23;;;7.65;;
65717;SDS011;52445;52.466;-1.016;2023-04-16T00:13:42;14.82;;;6.75;;
65717;SDS011;52445;52.466;-1.016;2023-04-16T00:16:09;15.00;;;7.95;;
65717;SDS011;52445;52.466;-1.016;2023-04-16T00:18:35;16.83;;;7.50;;
65717;SDS011;52445;52.466;-1.016;2023-04-16T00:21:02;14.73;;;7.70;;
65717;SDS011;52445;52.466;-1.016;2023-04-16T00:23:29;14.98;;;8.07;;
65717;SDS011;52445;52.466;-1.016;2023-04-16T00:25:55;14.18;;;7.47;;
65717;SDS011;52445;52.466;-1.016;2023-04-16T00:28:25;16.48;;;7.85;;
65717;SDS011;52445;52.466;-1.016;2023-04-16T00:30:53;15.57;;;8.15;;
65717;SDS011;52445;52.466;-1.016;2023-04-16T00:33:20;14.23;;;7.95;;
65717;SDS011;52445;52.466;-1.016;2023-04-16T00:35:47;15.27;;;7.95;;
65717;SDS011;52445;52.466;-1.016;2023-04-16T00:38:14;16.50;;;7.32;;
65717;SDS011;52445;52.466;-1.016;2023-04-16T00:40:41;16.42;;;8.55;;
65717;SDS011;52445;52.466;-1.016;2023-04-16T00:43:07;16.65;;;8.13;;
65717;SDS011;52445;52.466;-1.016;2023-04-16T00:45:34;15.32;;;8.73;;
65717;SDS011;52445;52.466;-1.016;2023-04-16T00:48:01;17.23;;;7.82;;
65717;SDS011;52445;52.466;-1.016;2023-04-16T00:50:29;18.02;;;8.50;;
65717;SDS011;52445;52.466;-1.016;2023-04-16T00:52:56;15.60;;;8.20;;
65717;SDS011;52445;52.466;-1.016;2023-04-16T00:55:23;15.52;;;8.20;;
65717;SDS011;52445;52.466;-1.016;2023-04-16T00:57:50;16.85;;;8.68;;
65717;SDS011;52445;52.466;-1.016;2023-04-16T01:00:16;18.77;;;8.02;;
65717;SDS011;52445;52.466;-1.016;2023-04-16T01:02:43;14.35;;;7.88;;
65717;SDS011;52445;52.466;-1.016;2023-04-16T01:05:09;13.82;;;8.15;;
65717;SDS011;52445;52.466;-1.016;2023-04-16T01:07:36;18.42;;;8.05;;
65717;SDS011;52445;52.466;-1.016;2023-04-16T01:10:03;17.10;;;8.38;;
65717;SDS011;52445;52.466;-1.016;2023-04-16T01:12:30;14.98;;;7.60;;
65717;SDS011;52445;52.466;-1.016;2023-04-16T01:14:57;15.88;;;8.25;;
65717;SDS011;52445;52.466;-1.016;2023-04-16T01:17:24;16.73;;;9.20;;
65717;SDS011;52445;52.466;-1.016;2023-04-16T01:19:51;18.67;;;8.25;;
65717;SDS011;52445;52.466;-1.016;2023-04-16T01:22:17;16.60;;;8.20;;
65717;SDS011;52445;52.466;-1.016;2023-04-16T01:24:44;16.10;;;9.05;;
65717;SDS011;52445;52.466;-1.016;2023-04-16T01:27:11;15.82;;;8.18;;
65717;SDS011;52445;52.466;-1.016;2023-04-16T01:29:37;17.45;;;9.30;;
65717;SDS011;52445;52.466;-1.016;2023-04-16T01:32:04;17.75;;;8.75;;
65717;SDS011;52445;52.466;-1.016;2023-04-16T01:34:31;19.30;;;9.68;;
65717;SDS011;52445;52.466;-1.016;2023-04-16T01:36:57;18.17;;;8.30;;
65717;SDS011;52445;52.466;-1.016;2023-04-16T01:39:24;16.17;;;8.57;;
65717;SDS011;52445;52.466;-1.016;2023-04-16T01:41:51;16.13;;;8.88;;
65717;SDS011;52445;52.466;-1.016;2023-04-16T01:44:18;16.38;;;8.50;;
65717;SDS011;52445;52.466;-1.016;2023-04-16T01:46:44;15.60;;;8.32;;
65717;SDS011;52445;52.466;-1.016;2023-04-16T01:49:11;16.85;;;8.27;;
65717;SDS011;52445;52.466;-1.016;2023-04-16T01:51:38;18.75;;;9.45;;
65717;SDS011;52445;52.466;-1.016;2023-04-16T01:54:04;16.58;;;9.00;;
65717;SDS011;52445;52.466;-1.016;2023-04-16T01:56:31;22.00;;;8.80;;
65717;SDS011;52445;52.466;-1.016;2023-04-16T01:58:57;14.77;;;8.50;;
65717;SDS011;52445;52.466;-1.016;2023-04-16T02:01:24;16.35;;;8.60;;
65717;SDS011;52445;52.466;-1.016;2023-04-16T02:03:51;17.38;;;8.82;;
65717;SDS011;52445;52.466;-1.016;2023-04-16T02:06:18;15.85;;;8.27;;
65717;SDS011;52445;52.466;-1.016;2023-04-16T02:08:45;17.48;;;8.68;;
65717;SDS011;52445;52.466;-1.016;2023-04-16T02:11:11;20.48;;;7.88;;
65717;SDS011;52445;52.466;-1.016;2023-04-16T02:13:38;18.10;;;9.43;;
65717;SDS011;52445;52.466;-1.016;2023-04-16T02:16:05;17.25;;;7.93;;
65717;SDS011;52445;52.466;-1.016;2023-04-16T02:18:31;17.40;;;9.25;;
65717;SDS011;52445;52.466;-1.016;2023-04-16T02:20:58;19.67;;;8.85;;
65717;SDS011;52445;52.466;-1.016;2023-04-16T02:23:25;21.85;;;10.18;;
65717;SDS011;52445;52.466;-1.016;2023-04-16T02:25:52;17.33;;;8.88;;
65717;SDS011;52445;52.466;-1.016;2023-04-16T02:28:18;19.00;;;9.18;;
65717;SDS011;52445;52.466;-1.016;2023-04-16T02:30:45;17.35;;;8.95;;
65717;SDS011;52445;52.466;-1.016;2023-04-16T02:33:12;17.60;;;9.15;;
65717;SDS011;52445;52.466;-1.016;2023-04-16T02:35:38;20.90;;;9.70;;
65717;SDS011;52445;52.466;-1.016;2023-04-16T02:38:06;20.17;;;9.13;;
65717;SDS011;52445;52.466;-1.016;2023-04-16T02:40:33;17.95;;;9.35;;
65717;SDS011;52445;52.466;-1.016;2023-04-16T02:43:00;20.92;;;8.98;;
65717;SDS011;52445;52.466;-1.016;2023-04-16T02:45:26;20.08;;;9.07;;
65717;SDS011;52445;52.466;-1.016;2023-04-16T02:47:53;15.80;;;8.77;;
65717;SDS011;52445;52.466;-1.016;2023-04-16T02:50:19;17.67;;;8.13;;
65717;SDS011;52445;52.466;-1.016;2023-04-16T02:52:46;18.50;;;8.55;;
65717;SDS011;52445;52.466;-1.016;2023-04-16T02:55:13;18.05;;;8.63;;
65717;SDS011;52445;52.466;-1.016;2023-04-16T02:57:40;18.77;;;8.57;;
65717;SDS011;52445;52.466;-1.016;2023-04-16T03:00:07;16.27;;;9.00;;
65717;SDS011;52445;52.466;-1.016;2023-04-16T03:02:35;15.05;;;7.55;;
65717;SDS011;52445;52.466;-1.016;2023-04-16T03:05:02;14.43;;;7.95;;
65717;SDS011;52445;52.466;-1.016;2023-04-16T03:07:28;13.38;;;8.45;;
65717;SDS011;52445;52.466;-1.016;2023-04-16T03:09:55;15.55;;;8.82;;
65717;SDS011;52445;52.466;-1.016;2023-04-16T03:12:22;14.38;;;7.60;;
65717;SDS011;52445;52.466;-1.016;2023-04-16T03:14:49;15.77;;;7.43;;
65717;SDS011;52445;52.466;-1.016;2023-04-16T03:17:17;17.58;;;8.98;;
65717;SDS011;52445;52.466;-1.016;2023-04-16T03:19:44;13.68;;;7.43;;
65717;SDS011;52445;52.466;-1.016;2023-04-16T03:22:11;14.90;;;7.05;;
65717;SDS011;52445;52.466;-1.016;2023-04-16T03:24:38;13.85;;;6.22;;
65717;SDS011;52445;52.466;-1.016;2023-04-16T03:27:05;17.27;;;7.47;;
65717;SDS011;52445;52.466;-1.016;2023-04-16T03:29:31;13.15;;;6.93;;
65717;SDS011;52445;52.466;-1.016;2023-04-16T03:31:58;18.02;;;8.20;;
65717;SDS011;52445;52.466;-1.016;2023-04-16T03:34:24;14.90;;;6.93;;
65717;SDS011;52445;52.466;-1.016;2023-04-16T03:36:51;16.38;;;8.38;;
65717;SDS011;52445;52.466;-1.016;2023-04-16T03:39:17;18.63;;;8.32;;
65717;SDS011;52445;52.466;-1.016;2023-04-16T03:41:44;18.42;;;8.45;;
65717;SDS011;52445;52.466;-1.016;2023-04-16T03:44:11;14.90;;;7.95;;
65717;SDS011;52445;52.466;-1.016;2023-04-16T03:46:37;14.48;;;7.35;;
65717;SDS011;52445;52.466;-1.016;2023-04-16T03:49:04;13.82;;;7.15;;
65717;SDS011;52445;52.466;-1.016;2023-04-16T03:51:31;14.15;;;7.22;;
65717;SDS011;52445;52.466;-1.016;2023-04-16T03:53:58;14.13;;;7.32;;
65717;SDS011;52445;52.466;-1.016;2023-04-16T03:56:24;16.05;;;7.45;;
65717;SDS011;52445;52.466;-1.016;2023-04-16T03:58:51;13.18;;;7.18;;
65717;SDS011;52445;52.466;-1.016;2023-04-16T04:01:18;15.23;;;7.32;;
65717;SDS011;52445;52.466;-1.016;2023-04-16T04:03:44;13.88;;;6.47;;
65717;SDS011;52445;52.466;-1.016;2023-04-16T04:06:11;12.93;;;6.65;;
65717;SDS011;52445;52.466;-1.016;2023-04-16T04:08:38;14.65;;;7.82;;
65717;SDS011;52445;52.466;-1.016;2023-04-16T04:11:04;15.25;;;7.22;;
65717;SDS011;52445;52.466;-1.016;2023-04-16T04:13:31;10.88;;;5.82;;
65717;SDS011;52445;52.466;-1.016;2023-04-16T04:15:57;13.35;;;5.97;;
65717;SDS011;52445;52.466;-1.016;2023-04-16T04:18:24;16.02;;;6.30;;
65717;SDS011;52445;52.466;-1.016;2023-04-16T04:20:51;13.93;;;6.78;;
65717;SDS011;52445;52.466;-1.016;2023-04-16T04:23:17;16.17;;;7.30;;
65717;SDS011;52445;52.466;-1.016;2023-04-16T04:25:44;15.35;;;7.13;;
65717;SDS011;52445;52.466;-1.016;2023-04-16T04:28:11;15.13;;;7.60;;
65717;SDS011;52445;52.466;-1.016;2023-04-16T04:30:37;13.48;;;7.22;;
65717;SDS011;52445;52.466;-1.016;2023-04-16T04:33:04;14.85;;;8.18;;
65717;SDS011;52445;52.466;-1.016;2023-04-16T04:35:31;17.67;;;8.43;;
65717;SDS011;52445;52.466;-1.016;2023-04-16T04:37:58;22.02;;;9.98;;
65717;SDS011;52445;52.466;-1.016;2023-04-16T04:40:25;18.83;;;8.43;;
65717;SDS011;52445;52.466;-1.016;2023-04-16T04:42:51;16.33;;;7.63;;
65717;SDS011;52445;52.466;-1.016;2023-04-16T04:45:18;16.70;;;8.27;;
65717;SDS011;52445;52.466;-1.016;2023-04-16T04:47:44;17.65;;;9.40;;
65717;SDS011;52445;52.466;-1.016;2023-04-16T04:50:11;18.38;;;8.88;;
65717;SDS011;52445;52.466;-1.016;2023-04-16T04:52:38;20.08;;;8.65;;
65717;SDS011;52445;52.466;-1.016;2023-04-16T04:55:04;17.17;;;7.80;;
65717;SDS011;52445;52.466;-1.016;2023-04-16T04:57:31;16.85;;;8.45;;
65717;SDS011;52445;52.466;-1.016;2023-04-16T04:59:58;15.75;;;8.20;;
65717;SDS011;52445;52.466;-1.016;2023-04-16T05:02:24;14.77;;;7.18;;
65717;SDS011;52445;52.466;-1.016;2023-04-16T05:04:51;14.80;;;7.60;;
65717;SDS011;52445;52.466;-1.016;2023-04-16T05:07:17;13.32;;;6.97;;
65717;SDS011;52445;52.466;-1.016;2023-04-16T05:09:44;13.30;;;7.53;;
65717;SDS011;52445;52.466;-1.016;2023-04-16T05:12:11;12.05;;;6.70;;
65717;SDS011;52445;52.466;-1.016;2023-04-16T05:14:37;20.58;;;9.57;;
65717;SDS011;52445;52.466;-1.016;2023-04-16T05:17:04;17.83;;;9.05;;
65717;SDS011;52445;52.466;-1.016;2023-04-16T05:19:30;17.60;;;8.15;;
65717;SDS011;52445;52.466;-1.016;2023-04-16T05:21:57;18.38;;;9.02;;
65717;SDS011;52445;52.466;-1.016;2023-04-16T05:24:23;15.07;;;8.10;;
65717;SDS011;52445;52.466;-1.016;2023-04-16T05:26:50;14.63;;;7.72;;
65717;SDS011;52445;52.466;-1.016;2023-04-16T05:29:17;14.18;;;7.25;;
65717;SDS011;52445;52.466;-1.016;2023-04-16T05:31:43;14.75;;;7.32;;
65717;SDS011;52445;52.466;-1.016;2023-04-16T05:34:10;15.77;;;7.50;;
65717;SDS011;52445;52.466;-1.016;2023-04-16T05:36:37;14.27;;;7.38;;
65717;SDS011;52445;52.466;-1.016;2023-04-16T05:39:03;14.20;;;7.80;;
65717;SDS011;52445;52.466;-1.016;2023-04-16T05:41:31;15.38;;;8.15;;
65717;SDS011;52445;52.466;-1.016;2023-04-16T05:43:57;12.98;;;6.97;;
65717;SDS011;52445;52.466;-1.016;2023-04-16T05:46:24;14.18;;;8.20;;
65717;SDS011;52445;52.466;-1.016;2023-04-16T05:48:51;14.65;;;8.63;;
65717;SDS011;52445;52.466;-1.016;2023-04-16T05:51:17;13.82;;;7.55;;
65717;SDS011;52445;52.466;-1.016;2023-04-16T05:53:44;14.95;;;6.88;;
65717;SDS011;52445;52.466;-1.016;2023-04-16T05:56:11;15.45;;;8.15;;
65717;SDS011;52445;52.466;-1.016;2023-04-16T05:58:37;12.88;;;7.60;;
65717;SDS011;52445;52.466;-1.016;2023-04-16T06:01:04;13.95;;;6.82;;
65717;SDS011;52445;52.466;-1.016;2023-04-16T06:03:30;13.07;;;6.57;;
65717;SDS011;52445;52.466;-1.016;2023-04-16T06:05:57;14.82;;;7.80;;
65717;SDS011;52445;52.466;-1.016;2023-04-16T06:08:24;13.45;;;7.63;;
65717;SDS011;52445;52.466;-1.016;2023-04-16T06:10:50;14.60;;;7.30;;
65717;SDS011;52445;52.466;-1.016;2023-04-16T06:13:17;13.80;;;7.03;;
65717;SDS011;52445;52.466;-1.016;2023-04-16T06:15:44;19.45;;;7.53;;
65717;SDS011;52445;52.466;-1.016;2023-04-16T06:18:10;14.38;;;7.25;;
65717;SDS011;52445;52.466;-1.016;2023-04-16T06:20:37;13.82;;;7.18;;
65717;SDS011;52445;52.466;-1.016;2023-04-16T06:23:03;15.45;;;8.18;;
65717;SDS011;52445;52.466;-1.016;2023-04-16T06:25:30;13.10;;;7.20;;
65717;SDS011;52445;52.466;-1.016;2023-04-16T06:27:57;13.48;;;7.90;;
65717;SDS011;52445;52.466;-1.016;2023-04-16T06:30:23;14.43;;;7.38;;
65717;SDS011;52445;52.466;-1.016;2023-04-16T06:32:50;15.50;;;6.97;;
65717;SDS011;52445;52.466;-1.016;2023-04-16T06:35:18;12.70;;;6.90;;
65717;SDS011;52445;52.466;-1.016;2023-04-16T06:37:45;13.50;;;6.85;;
65717;SDS011;52445;52.466;-1.016;2023-04-16T06:40:12;12.48;;;6.30;;
65717;SDS011;52445;52.466;-1.016;2023-04-16T06:42:39;13.20;;;6.45;;
65717;SDS011;52445;52.466;-1.016;2023-04-16T06:45:07;15.13;;;7.35;;
65717;SDS011;52445;52.466;-1.016;2023-04-16T06:47:34;13.63;;;6.80;;
65717;SDS011;52445;52.466;-1.016;2023-04-16T06:50:01;15.20;;;6.90;;
65717;SDS011;52445;52.466;-1.016;2023-04-16T06:52:28;14.95;;;7.75;;
65717;SDS011;52445;52.466;-1.016;2023-04-16T06:54:55;12.35;;;6.47;;
65717;SDS011;52445;52.466;-1.016;2023-04-16T06:57:21;15.98;;;7.10;;
65717;SDS011;52445;52.466;-1.016;2023-04-16T06:59:48;15.52;;;7.95;;
65717;SDS011;52445;52.466;-1.016;2023-04-16T07:02:14;14.80;;;7.53;;
65717;SDS011;52445;52.466;-1.016;2023-04-16T07:04:41;14.90;;;7.47;;
65717;SDS011;52445;52.466;-1.016;2023-04-16T07:07:08;14.95;;;6.95;;
65717;SDS011;52445;52.466;-1.016;2023-04-16T07:09:37;14.05;;;7.10;;
65717;SDS011;52445;52.466;-1.016;2023-04-16T07:12:04;16.83;;;7.85;;
65717;SDS011;52445;52.466;-1.016;2023-04-16T07:14:32;13.25;;;7.35;;
65717;SDS011;52445;52.466;-1.016;2023-04-16T07:16:58;14.68;;;7.07;;
65717;SDS011;52445;52.466;-1.016;2023-04-16T07:19:25;13.52;;;6.78;;
65717;SDS011;52445;52.466;-1.016;2023-04-16T07:24:22;13.45;;;7.00;;
65717;SDS011;52445;52.466;-1.016;2023-04-16T07:26:48;12.35;;;6.78;;
65717;SDS011;52445;52.466;-1.016;2023-04-16T07:29:15;15.93;;;7.93;;
65717;SDS011;52445;52.466;-1.016;2023-04-16T07:31:41;12.23;;;6.88;;
65717;SDS011;52445;52.466;-1.016;2023-04-16T07:34:08;14.88;;;7.57;;
65717;SDS011;52445;52.466;-1.016;2023-04-16T07:36:35;12.32;;;7.10;;
65717;SDS011;52445;52.466;-1.016;2023-04-16T07:39:02;13.65;;;7.63;;
65717;SDS011;52445;52.466;-1.016;2023-04-16T07:41:30;12.30;;;6.35;;
65717;SDS011;52445;52.466;-1.016;2023-04-16T07:43:56;13.90;;;7.03;;
65717;SDS011;52445;52.466;-1.016;2023-04-16T07:46:23;14.40;;;8.00;;
65717;SDS011;52445;52.466;-1.016;2023-04-16T07:48:58;12.25;;;5.53;;
65717;SDS011;52445;52.466;-1.016;2023-04-16T07:51:25;10.18;;;5.10;;
65717;SDS011;52445;52.466;-1.016;2023-04-16T07:53:51;12.15;;;4.68;;
65717;SDS011;52445;52.466;-1.016;2023-04-16T07:56:18;10.10;;;6.07;;
65717;SDS011;52445;52.466;-1.016;2023-04-16T07:58:44;11.23;;;5.95;;
65717;SDS011;52445;52.466;-1.016;2023-04-16T08:01:11;7.50;;;4.50;;
65717;SDS011;52445;52.466;-1.016;2023-04-16T08:03:37;7.85;;;3.33;;
65717;SDS011;52445;52.466;-1.016;2023-04-16T08:06:04;5.82;;;4.00;;
65717;SDS011;52445;52.466;-1.016;2023-04-16T08:08:31;6.93;;;3.85;;
65717;SDS011;52445;52.466;-1.016;2023-04-16T08:10:58;5.75;;;3.08;;
65717;SDS011;52445;52.466;-1.016;2023-04-16T08:13:25;6.63;;;3.45;;
65717;SDS011;52445;52.466;-1.016;2023-04-16T08:15:52;5.18;;;2.92;;
65717;SDS011;52445;52.466;-1.016;2023-04-16T08:18:18;6.93;;;3.28;;
65717;SDS011;52445;52.466;-1.016;2023-04-16T08:20:45;4.50;;;3.00;;
65717;SDS011;52445;52.466;-1.016;2023-04-16T08:23:12;4.85;;;2.88;;
65717;SDS011;52445;52.466;-1.016;2023-04-16T08:25:38;4.97;;;2.33;;
65717;SDS011;52445;52.466;-1.016;2023-04-16T08:28:05;4.45;;;2.15;;
65717;SDS011;52445;52.466;-1.016;2023-04-16T08:30:32;3.63;;;2.05;;
65717;SDS011;52445;52.466;-1.016;2023-04-16T08:32:58;3.55;;;1.95;;
65717;SDS011;52445;52.466;-1.016;2023-04-16T08:35:25;5.03;;;2.28;;
65717;SDS011;52445;52.466;-1.016;2023-04-16T08:37:52;6.43;;;1.50;;
65717;SDS011;52445;52.466;-1.016;2023-04-16T08:40:19;1.92;;;1.25;;
65717;SDS011;52445;52.466;-1.016;2023-04-16T08:42:48;4.63;;;1.73;;
65717;SDS011;52445;52.466;-1.016;2023-04-16T08:45:19;2.65;;;0.95;;
65717;SDS011;52445;52.466;-1.016;2023-04-16T08:47:47;3.40;;;1.52;;
65717;SDS011;52445;52.466;-1.016;2023-04-16T08:50:16;3.17;;;1.83;;
65717;SDS011;52445;52.466;-1.016;2023-04-16T08:52:52;1.92;;;1.10;;
65717;SDS011;52445;52.466;-1.016;2023-04-16T08:55:22;2.90;;;1.52;;
65717;SDS011;52445;52.466;-1.016;2023-04-16T08:57:56;2.70;;;1.55;;
65717;SDS011;52445;52.466;-1.016;2023-04-16T09:00:23;4.70;;;1.25;;
65717;SDS011;52445;52.466;-1.016;2023-04-16T09:02:50;3.00;;;1.20;;
65717;SDS011;52445;52.466;-1.016;2023-04-16T09:05:18;4.15;;;1.17;;
65717;SDS011;52445;52.466;-1.016;2023-04-16T09:07:47;4.93;;;2.08;;
65717;SDS011;52445;52.466;-1.016;2023-04-16T09:10:14;5.25;;;1.23;;
65717;SDS011;52445;52.466;-1.016;2023-04-16T09:12:41;5.35;;;2.05;;
65717;SDS011;52445;52.466;-1.016;2023-04-16T09:15:09;3.60;;;1.20;;
65717;SDS011;52445;52.466;-1.016;2023-04-16T09:17:37;8.50;;;3.58;;
65717;SDS011;52445;52.466;-1.016;2023-04-16T09:20:05;4.25;;;2.67;;
65717;SDS011;52445;52.466;-1.016;2023-04-16T09:22:34;3.40;;;1.83;;
65717;SDS011;52445;52.466;-1.016;2023-04-16T09:25:01;2.05;;;0.77;;
65717;SDS011;52445;52.466;-1.016;2023-04-16T09:27:29;2.58;;;1.08;;
65717;SDS011;52445;52.466;-1.016;2023-04-16T09:29:56;2.28;;;1.45;;
65717;SDS011;52445;52.466;-1.016;2023-04-16T09:32:23;2.80;;;1.48;;
65717;SDS011;52445;52.466;-1.016;2023-04-16T09:34:53;6.40;;;2.30;;
65717;SDS011;52445;52.466;-1.016;2023-04-16T09:37:32;3.08;;;2.85;;
65717;SDS011;52445;52.466;-1.016;2023-04-16T09:39:59;2.83;;;2.33;;
65717;SDS011;52445;52.466;-1.016;2023-04-16T09:42:28;10.63;;;6.32;;
65717;SDS011;52445;52.466;-1.016;2023-04-16T09:44:57;8.65;;;3.97;;
65717;SDS011;52445;52.466;-1.016;2023-04-16T09:47:44;2.22;;;2.03;;
65717;SDS011;52445;52.466;-1.016;2023-04-16T09:50:15;4.07;;;3.05;;
65717;SDS011;52445;52.466;-1.016;2023-04-16T09:52:44;3.00;;;2.63;;
65717;SDS011;52445;52.466;-1.016;2023-04-16T09:55:14;5.43;;;2.53;;
65717;SDS011;52445;52.466;-1.016;2023-04-16T09:57:40;4.55;;;3.85;;
65717;SDS011;52445;52.466;-1.016;2023-04-16T10:00:07;3.30;;;2.90;;
65717;SDS011;52445;52.466;-1.016;2023-04-16T10:02:35;4.45;;;1.27;;
65717;SDS011;52445;52.466;-1.016;2023-04-16T10:05:07;2.78;;;2.05;;
65717;SDS011;52445;52.466;-1.016;2023-04-16T10:07:34;2.13;;;1.95;;
65717;SDS011;52445;52.466;-1.016;2023-04-16T10:10:02;3.22;;;1.98;;
65717;SDS011;52445;52.466;-1.016;2023-04-16T10:12:29;5.03;;;2.60;;
65717;SDS011;52445;52.466;-1.016;2023-04-16T10:14:58;2.50;;;2.30;;
65717;SDS011;52445;52.466;-1.016;2023-04-16T10:17:25;2.63;;;2.25;;
65717;SDS011;52445;52.466;-1.016;2023-04-16T10:19:56;2.22;;;2.03;;
65717;SDS011;52445;52.466;-1.016;2023-04-16T10:22:24;2.47;;;2.33;;
65717;SDS011;52445;52.466;-1.016;2023-04-16T10:24:51;2.50;;;2.10;;
65717;SDS011;52445;52.466;-1.016;2023-04-16T10:27:18;1.98;;;1.77;;
65717;SDS011;52445;52.466;-1.016;2023-04-16T10:29:45;3.10;;;2.08;;
65717;SDS011;52445;52.466;-1.016;2023-04-16T10:32:14;2.53;;;2.33;;
65717;SDS011;52445;52.466;-1.016;2023-04-16T10:34:43;5.05;;;1.85;;
65717;SDS011;52445;52.466;-1.016;2023-04-16T10:37:09;2.72;;;2.03;;
65717;SDS011;52445;52.466;-1.016;2023-04-16T10:39:36;1.77;;;1.67;;
65717;SDS011;52445;52.466;-1.016;2023-04-16T10:42:07;2.67;;;2.47;;
65717;SDS011;52445;52.466;-1.016;2023-04-16T10:44:35;1.90;;;1.77;;
65717;SDS011;52445;52.466;-1.016;2023-04-16T10:47:02;3.05;;;2.38;;
65717;SDS011;52445;52.466;-1.016;2023-04-16T10:49:36;1.77;;;1.67;;
65717;SDS011;52445;52.466;-1.016;2023-04-16T10:52:12;2.28;;;2.08;;
65717;SDS011;52445;52.466;-1.016;2023-04-16T10:54:42;2.35;;;2.15;;
65717;SDS011;52445;52.466;-1.016;2023-04-16T10:57:09;1.88;;;1.48;;
65717;SDS011;52445;52.466;-1.016;2023-04-16T10:59:41;5.35;;;1.60;;
65717;SDS011;52445;52.466;-1.016;2023-04-16T11:02:13;2.22;;;1.83;;
65717;SDS011;52445;52.466;-1.016;2023-04-16T11:04:41;3.83;;;3.53;;
65717;SDS011;52445;52.466;-1.016;2023-04-16T11:10:02;4.07;;;1.80;;
65717;SDS011;52445;52.466;-1.016;2023-04-16T11:12:35;5.20;;;2.20;;
65717;SDS011;52445;52.466;-1.016;2023-04-16T11:15:12;5.45;;;1.23;;
65717;SDS011;52445;52.466;-1.016;2023-04-16T11:17:42;2.25;;;1.98;;
65717;SDS011;52445;52.466;-1.016;2023-04-16T11:22:51;0.95;;;0.63;;
65717;SDS011;52445;52.466;-1.016;2023-04-16T11:27:56;1.05;;;0.47;;
65717;SDS011;52445;52.466;-1.016;2023-04-16T11:30:28;0.90;;;0.63;;
65717;SDS011;52445;52.466;-1.016;2023-04-16T11:32:56;1.92;;;0.80;;
65717;SDS011;52445;52.466;-1.016;2023-04-16T11:35:22;2.05;;;1.52;;
65717;SDS011;52445;52.466;-1.016;2023-04-16T11:37:54;1.55;;;1.00;;
65717;SDS011;52445;52.466;-1.016;2023-04-16T11:40:22;4.40;;;2.17;;
65717;SDS011;52445;52.466;-1.016;2023-04-16T11:42:49;1.67;;;0.82;;
65717;SDS011;52445;52.466;-1.016;2023-04-16T11:45:15;1.48;;;0.90;;
65717;SDS011;52445;52.466;-1.016;2023-04-16T11:47:46;1.25;;;0.77;;
65717;SDS011;52445;52.466;-1.016;2023-04-16T11:52:54;1.00;;;0.55;;
65717;SDS011;52445;52.466;-1.016;2023-04-16T11:55:22;2.58;;;0.50;;
65717;SDS011;52445;52.466;-1.016;2023-04-16T11:57:49;1.35;;;0.73;;
65717;SDS011;52445;52.466;-1.016;2023-04-16T12:00:17;1.77;;;0.65;;
65717;SDS011;52445;52.466;-1.016;2023-04-16T12:02:50;1.25;;;1.15;;
65717;SDS011;52445;52.466;-1.016;2023-04-16T12:05:26;1.02;;;0.82;;
65717;SDS011;52445;52.466;-1.016;2023-04-16T12:08:01;1.42;;;0.85;;
65717;SDS011;52445;52.466;-1.016;2023-04-16T12:10:29;1.88;;;1.13;;
65717;SDS011;52445;52.466;-1.016;2023-04-16T12:13:15;1.25;;;0.55;;
65717;SDS011;52445;52.466;-1.016;2023-04-16T12:18:12;1.25;;;0.43;;
65717;SDS011;52445;52.466;-1.016;2023-04-16T12:20:40;4.55;;;0.68;;
65717;SDS011;52445;52.466;-1.016;2023-04-16T12:23:08;1.98;;;1.88;;
65717;SDS011;52445;52.466;-1.016;2023-04-16T12:25:36;1.23;;;0.73;;
65717;SDS011;52445;52.466;-1.016;2023-04-16T12:28:03;1.88;;;0.93;;
65717;SDS011;52445;52.466;-1.016;2023-04-16T12:30:30;1.95;;;0.63;;
65717;SDS011;52445;52.466;-1.016;2023-04-16T12:33:13;3.03;;;1.02;;
65717;SDS011;52445;52.466;-1.016;2023-04-16T12:35:42;2.88;;;1.83;;
65717;SDS011;52445;52.466;-1.016;2023-04-16T12:38:10;4.72;;;2.03;;
65717;SDS011;52445;52.466;-1.016;2023-04-16T12:40:37;2.67;;;0.85;;
65717;SDS011;52445;52.466;-1.016;2023-04-16T12:43:03;3.60;;;0.93;;
65717;SDS011;52445;52.466;-1.016;2023-04-16T12:45:30;2.85;;;0.77;;
65717;SDS011;52445;52.466;-1.016;2023-04-16T12:47:57;1.70;;;0.82;;
65717;SDS011;52445;52.466;-1.016;2023-04-16T12:50:24;1.45;;;0.85;;
65717;SDS011;52445;52.466;-1.016;2023-04-16T12:52:51;2.28;;;2.05;;
65717;SDS011;52445;52.466;-1.016;2023-04-16T12:55:17;0.88;;;0.52;;
65717;SDS011;52445;52.466;-1.016;2023-04-16T12:57:45;1.70;;;0.73;;
65717;SDS011;52445;52.466;-1.016;2023-04-16T13:00:14;2.25;;;0.90;;
65717;SDS011;52445;52.466;-1.016;2023-04-16T13:02:41;2.65;;;0.65;;
65717;SDS011;52445;52.466;-1.016;2023-04-16T13:05:08;3.20;;;0.88;;
65717;SDS011;52445;52.466;-1.016;2023-04-16T13:07:35;1.15;;;0.80;;
65717;SDS011;52445;52.466;-1.016;2023-04-16T13:10:01;1.00;;;0.90;;
65717;SDS011;52445;52.466;-1.016;2023-04-16T13:12:28;1.40;;;0.70;;
65717;SDS011;52445;52.466;-1.016;2023-04-16T13:14:55;1.33;;;0.55;;
65717;SDS011;52445;52.466;-1.016;2023-04-16T13:17:21;1.88;;;0.55;;
65717;SDS011;52445;52.466;-1.016;2023-04-16T13:19:48;2.83;;;0.82;;
65717;SDS011;52445;52.466;-1.016;2023-04-16T13:22:15;3.78;;;0.75;;
65717;SDS011;52445;52.466;-1.016;2023-04-16T13:24:41;0.93;;;0.70;;
65717;SDS011;52445;52.466;-1.016;2023-04-16T13:27:08;2.38;;;1.08;;
65717;SDS011;52445;52.466;-1.016;2023-04-16T13:29:35;2.78;;;0.63;;
65717;SDS011;52445;52.466;-1.016;2023-04-16T13:32:01;3.15;;;0.95;;
65717;SDS011;52445;52.466;-1.016;2023-04-16T13:34:29;2.25;;;0.90;;
65717;SDS011;52445;52.466;-1.016;2023-04-16T13:36:55;2.67;;;0.95;;
65717;SDS011;52445;52.466;-1.016;2023-04-16T13:39:22;1.85;;;0.60;;
65717;SDS011;52445;52.466;-1.016;2023-04-16T13:41:49;5.95;;;1.42;;
65717;SDS011;52445;52.466;-1.016;2023-04-16T13:44:16;1.55;;;0.75;;
65717;SDS011;52445;52.466;-1.016;2023-04-16T13:46:43;1.60;;;0.95;;
65717;SDS011;52445;52.466;-1.016;2023-04-16T13:49:13;2.60;;;0.70;;
65717;SDS011;52445;52.466;-1.016;2023-04-16T13:51:41;10.43;;;4.63;;
65717;SDS011;52445;52.466;-1.016;2023-04-16T13:54:09;6.00;;;2.50;;
65717;SDS011;52445;52.466;-1.016;2023-04-16T13:56:36;6.38;;;3.00;;
65717;SDS011;52445;52.466;-1.016;2023-04-16T13:59:02;4.95;;;1.83;;
65717;SDS011;52445;52.466;-1.016;2023-04-16T14:01:29;4.63;;;1.80;;
65717;SDS011;52445;52.466;-1.016;2023-04-16T14:03:56;6.10;;;1.73;;
65717;SDS011;52445;52.466;-1.016;2023-04-16T14:06:22;5.88;;;1.42;;
65717;SDS011;52445;52.466;-1.016;2023-04-16T14:08:49;4.03;;;1.40;;
65717;SDS011;52445;52.466;-1.016;2023-04-16T14:11:16;2.08;;;1.33;;
65717;SDS011;52445;52.466;-1.016;2023-04-16T14:13:42;3.60;;;1.15;;
65717;SDS011;52445;52.466;-1.016;2023-04-16T14:16:09;3.00;;;2.20;;
65717;SDS011;52445;52.466;-1.016;2023-04-16T14:18:36;3.58;;;1.33;;
65717;SDS011;52445;52.466;-1.016;2023-04-16T14:21:07;3.80;;;1.75;;
65717;SDS011;52445;52.466;-1.016;2023-04-16T14:23:34;4.95;;;3.15;;
65717;SDS011;52445;52.466;-1.016;2023-04-16T14:26:00;3.38;;;1.52;;
65717;SDS011;52445;52.466;-1.016;2023-04-16T14:28:27;2.67;;;1.42;;
65717;SDS011;52445;52.466;-1.016;2023-04-16T14:30:53;2.75;;;1.35;;
65717;SDS011;52445;52.466;-1.016;2023-04-16T14:33:20;5.25;;;1.67;;
65717;SDS011;52445;52.466;-1.016;2023-04-16T14:35:47;3.22;;;1.15;;
65717;SDS011;52445;52.466;-1.016;2023-04-16T14:38:15;2.35;;;1.10;;
65717;SDS011;52445;52.466;-1.016;2023-04-16T14:40:42;1.92;;;1.33;;
65717;SDS011;52445;52.466;-1.016;2023-04-16T14:43:08;2.35;;;1.27;;
65717;SDS011;52445;52.466;-1.016;2023-04-16T14:45:35;1.88;;;1.20;;